createdAt,value
2017-10-01T00:00:21.782Z,0
2017-10-01T00:01:26.552Z,0
2017-10-01T00:02:29.837Z,0
2017-10-01T00:03:31.501Z,0
2017-10-01T00:04:35.354Z,0
2017-10-01T00:05:36.926Z,0
2017-10-01T00:06:38.534Z,0
2017-10-01T00:07:41.235Z,0
2017-10-01T00:08:44.946Z,0
2017-10-01T00:09:48.893Z,0
2017-10-01T00:10:52.692Z,0
2017-10-01T00:11:56.830Z,0
2017-10-01T00:12:59.201Z,0
2017-10-01T00:14:01.609Z,0
2017-10-01T00:15:05.511Z,0
2017-10-01T00:16:08.120Z,0
2017-10-01T00:17:10.617Z,0
2017-10-01T00:18:12.821Z,0
2017-10-01T00:19:15.210Z,0
2017-10-01T00:20:17.434Z,0
2017-10-01T00:21:19.376Z,0
2017-10-01T00:22:20.977Z,0
2017-10-01T00:23:24.613Z,0
2017-10-01T00:24:26.213Z,0
2017-10-01T00:25:27.825Z,0
2017-10-01T00:26:30.189Z,0
2017-10-01T00:27:33.879Z,0
2017-10-01T00:28:37.865Z,0
2017-10-01T00:29:41.228Z,0
2017-10-01T00:30:44.222Z,0
2017-10-01T00:31:45.818Z,0
2017-10-01T00:32:49.512Z,0
2017-10-01T00:33:51.668Z,0
2017-10-01T00:34:54.572Z,0
2017-10-01T00:35:57.654Z,0
2017-10-01T00:36:59.838Z,0
2017-10-01T00:38:02.093Z,0
2017-10-01T00:39:05.629Z,0
2017-10-01T00:40:07.743Z,0
2017-10-01T00:41:10.159Z,0
2017-10-01T00:42:12.889Z,0
2017-10-01T00:43:14.505Z,0
2017-10-01T00:44:16.112Z,0
2017-10-01T00:45:18.598Z,0
2017-10-01T00:46:24.704Z,0
2017-10-01T00:47:28.386Z,0
2017-10-01T00:48:32.883Z,0
2017-10-01T00:49:36.090Z,0
2017-10-01T00:50:38.343Z,0
2017-10-01T00:51:40.348Z,0
2017-10-01T00:52:42.419Z,0
2017-10-01T00:53:44.032Z,0
2017-10-01T00:54:45.636Z,0
2017-10-01T00:55:47.243Z,0
2017-10-01T00:56:48.855Z,0
2017-10-01T00:57:50.464Z,0
2017-10-01T00:58:52.069Z,0
2017-10-01T00:59:53.677Z,0
2017-10-01T01:00:55.287Z,0
2017-10-01T01:01:56.896Z,0
2017-10-01T01:02:58.500Z,0
2017-10-01T01:04:00.108Z,0
2017-10-01T01:05:01.720Z,0
2017-10-01T01:06:03.334Z,0
2017-10-01T01:07:04.937Z,0
2017-10-01T01:08:06.546Z,0
2017-10-01T01:09:08.157Z,0
2017-10-01T01:10:09.764Z,0
2017-10-01T01:11:11.367Z,0
2017-10-01T01:12:12.982Z,0
2017-10-01T01:13:14.589Z,0
2017-10-01T01:14:16.196Z,0
2017-10-01T01:16:23.270Z,0
2017-10-01T01:17:24.875Z,0
2017-10-01T01:18:26.489Z,0
2017-10-01T01:19:28.097Z,0
2017-10-01T01:20:29.703Z,0
2017-10-01T01:21:31.316Z,0
2017-10-01T01:22:32.923Z,0
2017-10-01T01:23:34.571Z,0
2017-10-01T01:24:36.176Z,0
2017-10-01T01:25:37.791Z,0
2017-10-01T01:26:39.400Z,0
2017-10-01T01:27:41.007Z,0
2017-10-01T01:28:42.620Z,0
2017-10-01T01:29:44.224Z,0
2017-10-01T01:30:45.835Z,0
2017-10-01T01:31:47.452Z,0
2017-10-01T01:32:49.054Z,0
2017-10-01T01:33:50.665Z,0
2017-10-01T01:34:52.278Z,0
2017-10-01T01:35:53.878Z,0
2017-10-01T01:36:55.483Z,0
2017-10-01T01:37:57.096Z,0
2017-10-01T01:38:58.707Z,0
2017-10-01T01:40:00.311Z,0
2017-10-01T01:41:01.922Z,0
2017-10-01T01:42:03.531Z,0
2017-10-01T01:43:05.142Z,0
2017-10-01T01:44:06.741Z,0
2017-10-01T01:45:08.346Z,0
2017-10-01T01:46:09.956Z,0
2017-10-01T01:47:11.561Z,0
2017-10-01T01:48:13.168Z,0
2017-10-01T01:49:14.775Z,0
2017-10-01T01:50:16.381Z,0
2017-10-01T01:51:17.987Z,0
2017-10-01T01:52:19.596Z,0
2017-10-01T01:53:22.242Z,0
2017-10-01T01:54:23.847Z,0
2017-10-01T01:55:25.461Z,0
2017-10-01T01:56:27.063Z,0
2017-10-01T01:57:28.672Z,0
2017-10-01T01:58:30.275Z,0
2017-10-01T01:59:31.885Z,0
2017-10-01T02:00:33.490Z,0
2017-10-01T02:01:35.095Z,0
2017-10-01T02:02:36.713Z,0
2017-10-01T02:03:38.321Z,0
2017-10-01T02:04:39.930Z,0
2017-10-01T02:05:41.533Z,0
2017-10-01T02:06:43.139Z,0
2017-10-01T02:07:44.753Z,0
2017-10-01T02:08:46.359Z,0
2017-10-01T02:09:47.967Z,0
2017-10-01T02:10:49.577Z,0
2017-10-01T02:11:51.180Z,0
2017-10-01T02:12:52.793Z,0
2017-10-01T02:13:54.396Z,0
2017-10-01T02:14:56.010Z,0
2017-10-01T02:15:57.619Z,0
2017-10-01T02:16:59.231Z,0
2017-10-01T02:18:00.844Z,0
2017-10-01T02:19:02.450Z,0
2017-10-01T02:20:04.053Z,0
2017-10-01T02:21:05.661Z,0
2017-10-01T02:22:07.265Z,0
2017-10-01T02:23:08.877Z,0
2017-10-01T02:24:10.484Z,0
2017-10-01T02:25:12.099Z,0
2017-10-01T02:26:13.700Z,0
2017-10-01T02:27:15.314Z,0
2017-10-01T02:28:16.921Z,0
2017-10-01T02:29:18.524Z,0
2017-10-01T02:30:20.132Z,0
2017-10-01T02:31:21.741Z,0
2017-10-01T02:32:23.351Z,0
2017-10-01T02:33:24.955Z,0
2017-10-01T02:34:26.564Z,0
2017-10-01T02:35:28.169Z,0
2017-10-01T02:36:29.774Z,0
2017-10-01T02:37:31.386Z,0
2017-10-01T02:38:32.995Z,0
2017-10-01T02:39:34.602Z,0
2017-10-01T02:40:36.206Z,0
2017-10-01T02:41:37.817Z,0
2017-10-01T02:42:39.427Z,0
2017-10-01T02:43:41.031Z,0
2017-10-01T02:44:42.636Z,0
2017-10-01T02:45:44.257Z,0
2017-10-01T02:46:45.864Z,0
2017-10-01T02:47:47.465Z,0
2017-10-01T02:48:49.069Z,0
2017-10-01T02:49:50.679Z,0
2017-10-01T02:50:52.285Z,0
2017-10-01T02:51:53.889Z,0
2017-10-01T02:52:55.500Z,0
2017-10-01T02:53:57.104Z,0
2017-10-01T02:54:58.726Z,0
2017-10-01T02:56:00.317Z,0
2017-10-01T02:57:01.928Z,0
2017-10-01T02:58:03.527Z,0
2017-10-01T02:59:05.138Z,0
2017-10-01T03:00:06.740Z,0
2017-10-01T03:01:08.355Z,0
2017-10-01T03:02:09.955Z,0
2017-10-01T03:03:11.565Z,0
2017-10-01T03:04:13.168Z,0
2017-10-01T03:05:14.780Z,0
2017-10-01T03:06:16.381Z,0
2017-10-01T03:07:17.988Z,0
2017-10-01T03:08:19.601Z,0
2017-10-01T03:09:21.201Z,0
2017-10-01T03:10:22.810Z,0
2017-10-01T03:11:24.413Z,0
2017-10-01T03:12:26.021Z,0
2017-10-01T03:13:27.627Z,0
2017-10-01T03:14:29.240Z,0
2017-10-01T03:15:30.844Z,0
2017-10-01T03:16:32.454Z,0
2017-10-01T03:17:34.054Z,0
2017-10-01T03:18:35.668Z,0
2017-10-01T03:19:37.272Z,0
2017-10-01T03:20:38.884Z,0
2017-10-01T03:21:40.486Z,0
2017-10-01T03:22:42.099Z,0
2017-10-01T03:23:43.705Z,0
2017-10-01T03:24:45.308Z,0
2017-10-01T03:25:46.930Z,0
2017-10-01T03:26:48.524Z,0
2017-10-01T03:27:50.131Z,0
2017-10-01T03:28:51.734Z,0
2017-10-01T03:29:53.340Z,0
2017-10-01T03:30:54.950Z,0
2017-10-01T03:31:56.556Z,0
2017-10-01T03:32:58.158Z,0
2017-10-01T03:33:59.764Z,0
2017-10-01T03:35:01.376Z,0
2017-10-01T03:36:02.987Z,0
2017-10-01T03:37:04.592Z,0
2017-10-01T03:38:06.197Z,0
2017-10-01T03:39:07.808Z,0
2017-10-01T03:40:09.418Z,0
2017-10-01T03:41:11.018Z,0
2017-10-01T03:42:12.629Z,0
2017-10-01T03:43:14.231Z,0
2017-10-01T03:44:15.851Z,0
2017-10-01T03:45:17.445Z,0
2017-10-01T03:46:19.053Z,0
2017-10-01T03:47:20.657Z,0
2017-10-01T03:48:22.266Z,0
2017-10-01T03:49:23.868Z,0
2017-10-01T03:50:25.474Z,0
2017-10-01T03:51:27.087Z,0
2017-10-01T03:52:28.692Z,0
2017-10-01T03:53:30.295Z,0
2017-10-01T03:54:31.898Z,0
2017-10-01T03:55:33.510Z,0
2017-10-01T03:56:35.112Z,0
2017-10-01T03:57:36.727Z,0
2017-10-01T03:58:38.331Z,0
2017-10-01T03:59:39.941Z,0
2017-10-01T04:00:41.540Z,0
2017-10-01T04:01:43.152Z,0
2017-10-01T04:02:44.752Z,0
2017-10-01T04:03:46.363Z,0
2017-10-01T04:04:47.970Z,0
2017-10-01T04:05:49.573Z,0
2017-10-01T04:06:51.182Z,0
2017-10-01T04:07:52.787Z,0
2017-10-01T04:08:54.391Z,0
2017-10-01T04:09:56.005Z,0
2017-10-01T04:10:57.615Z,0
2017-10-01T04:11:59.208Z,0
2017-10-01T04:13:00.823Z,0
2017-10-01T04:14:02.423Z,0
2017-10-01T04:15:04.027Z,0
2017-10-01T04:16:05.642Z,0
2017-10-01T04:17:07.247Z,0
2017-10-01T04:18:08.852Z,0
2017-10-01T04:19:10.459Z,0
2017-10-01T04:20:12.070Z,0
2017-10-01T04:21:13.670Z,0
2017-10-01T04:22:15.278Z,0
2017-10-01T04:23:16.880Z,0
2017-10-01T04:24:18.490Z,0
2017-10-01T04:25:20.092Z,0
2017-10-01T04:26:21.705Z,0
2017-10-01T04:27:23.306Z,0
2017-10-01T04:28:24.919Z,0
2017-10-01T04:29:26.522Z,0
2017-10-01T04:30:28.133Z,0
2017-10-01T04:31:29.741Z,0
2017-10-01T04:32:31.343Z,0
2017-10-01T04:33:32.949Z,0
2017-10-01T04:34:34.564Z,0
2017-10-01T04:35:36.170Z,0
2017-10-01T04:36:37.771Z,0
2017-10-01T04:37:39.383Z,0
2017-10-01T04:38:40.982Z,0
2017-10-01T04:39:42.588Z,0
2017-10-01T04:40:44.197Z,0
2017-10-01T04:41:45.807Z,0
2017-10-01T04:42:47.405Z,0
2017-10-01T04:43:49.009Z,0
2017-10-01T04:44:50.617Z,0
2017-10-01T04:45:52.223Z,0
2017-10-01T04:46:53.832Z,0
2017-10-01T04:47:55.434Z,0
2017-10-01T04:48:57.047Z,0
2017-10-01T04:49:58.647Z,0
2017-10-01T04:51:00.255Z,0
2017-10-01T04:52:01.860Z,0
2017-10-01T04:53:03.464Z,0
2017-10-01T04:54:05.065Z,0
2017-10-01T04:55:06.678Z,0
2017-10-01T04:56:08.287Z,0
2017-10-01T04:57:09.896Z,0
2017-10-01T04:58:11.495Z,0
2017-10-01T04:59:13.100Z,0
2017-10-01T05:00:14.709Z,0
2017-10-01T05:01:16.312Z,4
2017-10-01T05:02:17.917Z,4
2017-10-01T05:03:19.527Z,4
2017-10-01T05:04:21.134Z,4
2017-10-01T05:05:22.736Z,4
2017-10-01T05:06:24.343Z,8
2017-10-01T05:07:25.954Z,4
2017-10-01T05:08:27.558Z,8
2017-10-01T05:09:29.162Z,8
2017-10-01T05:10:30.772Z,8
2017-10-01T05:11:32.373Z,12
2017-10-01T05:12:33.979Z,16
2017-10-01T05:13:35.583Z,20
2017-10-01T05:14:37.194Z,24
2017-10-01T05:15:38.803Z,24
2017-10-01T05:16:40.410Z,28
2017-10-01T05:17:42.021Z,36
2017-10-01T05:18:43.625Z,44
2017-10-01T05:19:45.234Z,48
2017-10-01T05:20:46.844Z,60
2017-10-01T05:21:48.445Z,68
2017-10-01T05:22:50.054Z,76
2017-10-01T05:23:51.665Z,88
2017-10-01T05:24:53.277Z,108
2017-10-01T05:25:54.880Z,120
2017-10-01T05:26:56.499Z,136
2017-10-01T05:27:58.101Z,152
2017-10-01T05:28:59.708Z,172
2017-10-01T05:30:01.320Z,192
2017-10-01T05:31:02.925Z,212
2017-10-01T05:32:04.540Z,236
2017-10-01T05:33:06.147Z,260
2017-10-01T05:34:07.756Z,284
2017-10-01T05:35:09.367Z,312
2017-10-01T05:36:10.975Z,344
2017-10-01T05:37:12.589Z,376
2017-10-01T05:38:14.197Z,408
2017-10-01T05:39:15.811Z,444
2017-10-01T05:40:17.413Z,484
2017-10-01T05:41:19.025Z,520
2017-10-01T05:42:20.629Z,560
2017-10-01T05:43:23.615Z,596
2017-10-01T05:44:25.219Z,624
2017-10-01T05:45:26.833Z,660
2017-10-01T05:46:28.439Z,688
2017-10-01T05:47:30.053Z,728
2017-10-01T05:48:31.655Z,776
2017-10-01T05:49:33.264Z,824
2017-10-01T05:50:34.870Z,876
2017-10-01T05:51:36.479Z,920
2017-10-01T05:52:38.091Z,984
2017-10-01T05:53:39.698Z,1036
2017-10-01T05:54:41.311Z,1088
2017-10-01T05:55:42.915Z,1148
2017-10-01T05:56:44.528Z,1216
2017-10-01T05:57:46.133Z,1276
2017-10-01T05:58:47.748Z,1336
2017-10-01T05:59:49.357Z,1388
2017-10-01T06:00:50.974Z,1444
2017-10-01T06:01:52.586Z,1492
2017-10-01T06:02:54.208Z,1544
2017-10-01T06:03:55.820Z,1600
2017-10-01T06:04:57.438Z,1648
2017-10-01T06:05:59.045Z,1692
2017-10-01T06:07:00.657Z,1740
2017-10-01T06:08:02.267Z,1784
2017-10-01T06:09:03.881Z,1840
2017-10-01T06:10:05.493Z,1880
2017-10-01T06:11:07.100Z,1936
2017-10-01T06:12:08.712Z,2004
2017-10-01T06:13:10.327Z,2052
2017-10-01T06:14:11.942Z,2104
2017-10-01T06:15:13.550Z,2156
2017-10-01T06:16:15.186Z,2216
2017-10-01T06:17:16.771Z,2272
2017-10-01T06:18:18.428Z,2308
2017-10-01T06:19:20.049Z,2372
2017-10-01T06:20:21.658Z,2408
2017-10-01T06:21:23.266Z,2448
2017-10-01T06:22:24.885Z,2492
2017-10-01T06:23:26.500Z,2536
2017-10-01T06:24:28.102Z,2580
2017-10-01T06:25:29.718Z,2620
2017-10-01T06:26:31.330Z,2660
2017-10-01T06:27:32.940Z,2712
2017-10-01T06:28:34.552Z,2760
2017-10-01T06:29:36.170Z,2796
2017-10-01T06:30:37.781Z,2388
2017-10-01T06:31:39.388Z,2424
2017-10-01T06:32:41.000Z,2468
2017-10-01T06:33:42.609Z,2512
2017-10-01T06:34:44.221Z,2444
2017-10-01T06:35:45.836Z,2584
2017-10-01T06:36:47.455Z,2628
2017-10-01T06:37:49.071Z,2652
2017-10-01T06:38:50.678Z,2692
2017-10-01T06:39:52.292Z,2732
2017-10-01T06:40:53.906Z,2772
2017-10-01T06:41:55.765Z,2804
2017-10-01T06:42:57.388Z,2852
2017-10-01T06:43:58.995Z,3008
2017-10-01T06:45:00.610Z,3248
2017-10-01T06:46:02.227Z,3456
2017-10-01T06:47:03.832Z,3800
2017-10-01T06:48:05.437Z,4720
2017-10-01T06:49:07.059Z,5920
2017-10-01T06:50:08.669Z,7916
2017-10-01T06:51:10.282Z,10372
2017-10-01T06:52:11.897Z,10872
2017-10-01T06:53:13.509Z,11028
2017-10-01T06:54:15.125Z,11196
2017-10-01T06:55:16.737Z,11364
2017-10-01T06:56:18.354Z,11592
2017-10-01T06:57:19.967Z,11828
2017-10-01T06:58:21.589Z,12112
2017-10-01T06:59:23.198Z,12372
2017-10-01T07:00:24.816Z,12780
2017-10-01T07:01:26.429Z,13112
2017-10-01T07:02:28.048Z,11404
2017-10-01T07:03:29.662Z,12900
2017-10-01T07:04:31.289Z,13160
2017-10-01T07:05:32.909Z,17056
2017-10-01T07:06:34.523Z,17248
2017-10-01T07:07:36.135Z,17536
2017-10-01T07:08:37.757Z,17856
2017-10-01T07:09:39.386Z,18016
2017-10-01T07:10:40.991Z,18272
2017-10-01T07:11:42.607Z,18784
2017-10-01T07:12:44.230Z,18784
2017-10-01T07:13:45.851Z,18144
2017-10-01T07:14:47.461Z,13436
2017-10-01T07:15:49.076Z,11724
2017-10-01T07:16:50.698Z,15968
2017-10-01T07:17:52.317Z,11256
2017-10-01T07:18:53.932Z,10876
2017-10-01T07:19:55.547Z,12244
2017-10-01T07:20:57.170Z,21536
2017-10-01T07:21:58.788Z,18720
2017-10-01T07:23:00.413Z,17152
2017-10-01T07:24:02.032Z,18944
2017-10-01T07:25:03.649Z,19904
2017-10-01T07:26:05.268Z,20864
2017-10-01T07:27:06.895Z,19744
2017-10-01T07:28:08.516Z,20960
2017-10-01T07:29:10.129Z,26400
2017-10-01T07:30:11.754Z,26912
2017-10-01T07:31:13.371Z,27840
2017-10-01T07:32:14.989Z,27360
2017-10-01T07:33:16.613Z,34400
2017-10-01T07:34:18.241Z,33856
2017-10-01T07:35:19.857Z,34208
2017-10-01T07:36:21.473Z,27488
2017-10-01T07:37:23.101Z,24864
2017-10-01T07:38:24.721Z,25952
2017-10-01T07:39:26.336Z,18720
2017-10-01T07:40:27.962Z,23040
2017-10-01T07:41:29.580Z,19808
2017-10-01T07:42:31.206Z,24800
2017-10-01T07:43:32.822Z,28512
2017-10-01T07:44:34.443Z,13368
2017-10-01T07:45:36.062Z,12124
2017-10-01T07:46:37.684Z,11264
2017-10-01T07:47:39.300Z,11340
2017-10-01T07:48:40.923Z,11556
2017-10-01T07:49:42.539Z,11524
2017-10-01T07:50:44.165Z,11824
2017-10-01T07:51:45.779Z,13636
2017-10-01T07:52:47.399Z,12512
2017-10-01T07:53:49.019Z,11864
2017-10-01T07:54:50.636Z,12116
2017-10-01T07:55:52.263Z,22048
2017-10-01T07:56:53.882Z,14712
2017-10-01T07:57:55.498Z,11732
2017-10-01T07:58:57.112Z,11072
2017-10-01T07:59:58.735Z,10708
2017-10-01T08:01:00.351Z,10600
2017-10-01T08:02:01.973Z,10828
2017-10-01T08:03:03.589Z,11332
2017-10-01T08:04:05.212Z,11880
2017-10-01T08:05:06.826Z,12268
2017-10-01T08:06:08.451Z,16928
2017-10-01T08:07:10.064Z,13152
2017-10-01T08:08:11.688Z,11740
2017-10-01T08:09:13.306Z,13924
2017-10-01T08:10:14.929Z,31040
2017-10-01T08:11:16.548Z,31840
2017-10-01T08:12:18.170Z,29632
2017-10-01T08:13:22.300Z,25792
2017-10-01T08:14:23.925Z,19168
2017-10-01T08:15:25.543Z,18208
2017-10-01T08:16:27.166Z,17440
2017-10-01T08:17:28.783Z,30976
2017-10-01T08:18:30.407Z,30080
2017-10-01T08:19:32.028Z,28224
2017-10-01T08:20:33.643Z,28320
2017-10-01T08:21:35.265Z,27968
2017-10-01T08:22:36.888Z,27520
2017-10-01T08:23:38.517Z,27168
2017-10-01T08:24:40.134Z,27552
2017-10-01T08:25:41.754Z,28544
2017-10-01T08:26:43.379Z,29472
2017-10-01T08:27:45.003Z,31360
2017-10-01T08:28:46.623Z,35648
2017-10-01T08:29:48.245Z,34304
2017-10-01T08:30:49.879Z,34528
2017-10-01T08:31:51.499Z,34432
2017-10-01T08:32:53.118Z,34624
2017-10-01T08:33:54.749Z,34208
2017-10-01T08:34:56.379Z,35200
2017-10-01T08:35:57.997Z,35648
2017-10-01T08:36:59.620Z,35872
2017-10-01T08:38:01.247Z,37216
2017-10-01T08:39:02.875Z,36640
2017-10-01T08:40:04.503Z,36736
2017-10-01T08:41:07.031Z,39776
2017-10-01T08:42:08.640Z,40800
2017-10-01T08:43:10.376Z,41600
2017-10-01T08:44:12.051Z,41504
2017-10-01T08:45:13.673Z,40672
2017-10-01T08:46:15.300Z,39136
2017-10-01T08:47:16.931Z,37312
2017-10-01T08:48:18.561Z,35872
2017-10-01T08:49:20.180Z,34912
2017-10-01T08:50:21.802Z,35424
2017-10-01T08:51:23.432Z,36032
2017-10-01T08:52:25.055Z,37984
2017-10-01T08:53:26.687Z,37632
2017-10-01T08:54:28.309Z,38400
2017-10-01T08:55:29.944Z,37120
2017-10-01T08:56:31.566Z,36000
2017-10-01T08:57:33.197Z,33248
2017-10-01T08:58:34.830Z,29216
2017-10-01T08:59:36.464Z,30880
2017-10-01T09:00:38.089Z,30496
2017-10-01T09:01:39.721Z,30048
2017-10-01T09:02:41.352Z,28960
2017-10-01T09:03:42.985Z,28704
2017-10-01T09:04:44.606Z,28320
2017-10-01T09:05:46.238Z,28096
2017-10-01T09:06:48.059Z,28096
2017-10-01T09:07:49.684Z,28064
2017-10-01T09:08:51.321Z,28064
2017-10-01T09:09:52.952Z,24768
2017-10-01T09:10:54.582Z,18432
2017-10-01T09:11:56.207Z,25696
2017-10-01T09:12:57.842Z,25984
2017-10-01T09:13:59.464Z,26080
2017-10-01T09:15:01.102Z,26368
2017-10-01T09:16:02.730Z,26464
2017-10-01T09:17:04.365Z,26496
2017-10-01T09:18:05.995Z,26464
2017-10-01T09:19:07.629Z,26464
2017-10-01T09:20:09.253Z,26624
2017-10-01T09:21:10.888Z,27008
2017-10-01T09:22:12.515Z,32736
2017-10-01T09:23:14.138Z,39904
2017-10-01T09:24:15.773Z,40896
2017-10-01T09:25:17.410Z,39776
2017-10-01T09:26:19.042Z,38592
2017-10-01T09:27:20.663Z,40160
2017-10-01T09:28:22.297Z,41504
2017-10-01T09:29:23.928Z,41856
2017-10-01T09:30:25.579Z,43200
2017-10-01T09:31:27.212Z,43456
2017-10-01T09:32:28.843Z,42304
2017-10-01T09:33:30.570Z,43136
2017-10-01T09:34:32.192Z,43776
2017-10-01T09:35:33.821Z,43424
2017-10-01T09:36:35.455Z,45568
2017-10-01T09:37:38.542Z,46880
2017-10-01T09:38:42.024Z,47136
2017-10-01T09:39:44.484Z,45376
2017-10-01T09:40:46.110Z,43936
2017-10-01T09:41:47.741Z,45152
2017-10-01T09:42:51.027Z,46688
2017-10-01T09:43:52.705Z,47648
2017-10-01T09:44:54.330Z,47456
2017-10-01T09:45:55.967Z,48320
2017-10-01T09:46:57.593Z,48192
2017-10-01T09:47:59.220Z,47712
2017-10-01T09:49:00.856Z,47296
2017-10-01T09:50:02.484Z,47744
2017-10-01T09:51:04.116Z,47616
2017-10-01T09:52:05.743Z,45536
2017-10-01T09:53:07.382Z,46592
2017-10-01T09:54:09.006Z,47968
2017-10-01T09:55:10.641Z,47296
2017-10-01T09:56:12.266Z,46688
2017-10-01T09:57:13.902Z,45888
2017-10-01T09:58:15.528Z,45568
2017-10-01T09:59:17.228Z,44960
2017-10-01T10:00:28.883Z,43840
2017-10-01T10:01:36.973Z,42848
2017-10-01T10:02:47.112Z,44384
2017-10-01T10:03:48.702Z,47744
2017-10-01T10:04:50.336Z,47136
2017-10-01T10:05:51.963Z,47648
2017-10-01T10:06:53.599Z,49952
2017-10-01T10:07:55.227Z,49984
2017-10-01T10:09:06.996Z,47488
2017-10-01T10:10:18.830Z,46752
2017-10-01T10:11:30.272Z,47456
2017-10-01T10:12:34.079Z,46848
2017-10-01T10:13:46.189Z,48704
2017-10-01T10:14:57.196Z,48640
2017-10-01T10:16:07.485Z,46432
2017-10-01T10:17:19.694Z,46176
2017-10-01T10:18:26.162Z,47808
2017-10-01T10:19:37.672Z,45792
2017-10-01T10:20:49.490Z,45888
2017-10-01T10:21:59.618Z,45568
2017-10-01T10:23:11.699Z,45920
2017-10-01T10:24:20.252Z,42720
2017-10-01T10:25:26.974Z,43680
2017-10-01T10:26:28.600Z,38624
2017-10-01T10:27:30.229Z,36128
2017-10-01T10:28:31.860Z,33056
2017-10-01T10:29:33.496Z,19744
2017-10-01T10:30:44.671Z,29408
2017-10-01T10:31:55.744Z,34656
2017-10-01T10:32:57.377Z,40960
2017-10-01T10:33:59.009Z,43360
2017-10-01T10:35:00.637Z,43360
2017-10-01T10:36:02.265Z,43680
2017-10-01T10:37:03.903Z,24928
2017-10-01T10:38:05.534Z,41632
2017-10-01T10:39:07.164Z,40192
2017-10-01T10:40:08.799Z,39488
2017-10-01T10:41:10.422Z,36832
2017-10-01T10:42:12.051Z,28608
2017-10-01T10:43:13.685Z,38304
2017-10-01T10:44:15.317Z,40064
2017-10-01T10:45:16.946Z,43584
2017-10-01T10:46:18.578Z,41504
2017-10-01T10:47:20.210Z,42560
2017-10-01T10:48:21.842Z,42016
2017-10-01T10:49:23.715Z,42432
2017-10-01T10:50:25.345Z,42048
2017-10-01T10:51:26.974Z,39648
2017-10-01T10:52:29.332Z,39072
2017-10-01T10:53:30.966Z,39072
2017-10-01T10:54:32.593Z,34208
2017-10-01T10:55:34.222Z,35808
2017-10-01T10:56:35.845Z,32960
2017-10-01T10:57:37.477Z,38880
2017-10-01T10:58:39.111Z,38528
2017-10-01T10:59:40.742Z,36352
2017-10-01T11:00:42.368Z,29696
2017-10-01T11:01:43.995Z,29216
2017-10-01T11:02:45.628Z,32576
2017-10-01T11:03:47.254Z,33088
2017-10-01T11:04:48.885Z,36672
2017-10-01T11:05:50.510Z,40512
2017-10-01T11:06:52.810Z,39584
2017-10-01T11:07:55.044Z,40544
2017-10-01T11:08:57.881Z,40864
2017-10-01T11:10:00.050Z,39648
2017-10-01T11:11:01.689Z,29152
2017-10-01T11:12:03.316Z,32704
2017-10-01T11:13:04.946Z,33440
2017-10-01T11:14:16.822Z,40736
2017-10-01T11:15:29.025Z,41504
2017-10-01T11:16:37.734Z,41696
2017-10-01T11:17:39.319Z,41760
2017-10-01T11:18:41.051Z,42080
2017-10-01T11:19:42.680Z,44480
2017-10-01T11:20:44.363Z,44480
2017-10-01T11:21:47.184Z,42528
2017-10-01T11:22:51.102Z,37760
2017-10-01T11:23:53.928Z,37664
2017-10-01T11:24:55.612Z,28352
2017-10-01T11:25:57.067Z,31200
2017-10-01T11:27:12.304Z,40704
2017-10-01T11:28:28.478Z,37248
2017-10-01T11:29:42.436Z,27616
2017-10-01T11:31:01.529Z,22144
2017-10-01T11:32:15.535Z,35456
2017-10-01T11:33:28.959Z,38720
2017-10-01T11:34:39.457Z,40384
2017-10-01T11:35:48.698Z,34176
2017-10-01T11:37:00.605Z,26656
2017-10-01T11:38:14.247Z,24480
2017-10-01T11:39:19.124Z,12380
2017-10-01T11:40:30.458Z,25024
2017-10-01T11:41:41.547Z,16832
2017-10-01T11:42:55.018Z,25856
2017-10-01T11:43:55.883Z,25664
2017-10-01T11:45:07.448Z,21312
2017-10-01T11:46:20.310Z,12120
2017-10-01T11:47:31.169Z,18816
2017-10-01T11:48:40.545Z,33856
2017-10-01T11:49:52.466Z,45344
2017-10-01T11:51:05.258Z,7556
2017-10-01T11:52:16.829Z,46848
2017-10-01T11:53:31.510Z,48256
2017-10-01T11:54:43.977Z,41472
2017-10-01T11:55:46.896Z,43936
2017-10-01T11:57:01.674Z,46048
2017-10-01T11:58:20.565Z,42528
2017-10-01T11:59:34.599Z,40832
2017-10-01T12:00:49.525Z,39136
2017-10-01T12:02:04.210Z,46816
2017-10-01T12:03:21.830Z,46336
2017-10-01T12:04:36.501Z,46944
2017-10-01T12:05:49.560Z,42624
2017-10-01T12:07:09.874Z,46496
2017-10-01T12:08:20.585Z,45280
2017-10-01T12:09:24.224Z,42496
2017-10-01T12:10:28.930Z,40960
2017-10-01T12:11:31.210Z,28800
2017-10-01T12:12:33.841Z,13180
2017-10-01T12:13:50.733Z,11292
2017-10-01T12:15:10.062Z,10540
2017-10-01T12:16:26.977Z,10468
2017-10-01T12:17:40.075Z,9104
2017-10-01T12:18:54.063Z,9356
2017-10-01T12:20:13.111Z,7504
2017-10-01T12:21:22.822Z,7948
2017-10-01T12:22:30.553Z,5236
2017-10-01T12:23:45.498Z,6288
2017-10-01T12:24:55.054Z,4772
2017-10-01T12:26:03.490Z,6832
2017-10-01T12:27:13.078Z,5112
2017-10-01T12:28:30.471Z,5752
2017-10-01T12:29:40.976Z,7336
2017-10-01T12:30:47.423Z,7148
2017-10-01T12:32:08.517Z,8680
2017-10-01T12:33:18.978Z,8680
2017-10-01T12:34:30.482Z,7076
2017-10-01T12:35:36.831Z,7728
2017-10-01T12:36:54.634Z,7580
2017-10-01T12:38:13.084Z,7660
2017-10-01T12:39:30.236Z,8116
2017-10-01T12:40:47.660Z,8584
2017-10-01T12:42:03.516Z,7196
2017-10-01T12:43:21.489Z,6328
2017-10-01T12:44:33.875Z,7696
2017-10-01T12:45:42.605Z,5744
2017-10-01T12:47:07.269Z,6908
2017-10-01T12:48:15.979Z,8024
2017-10-01T12:49:36.191Z,8076
2017-10-01T12:50:42.737Z,7912
2017-10-01T12:51:54.311Z,7596
2017-10-01T12:53:10.021Z,5304
2017-10-01T12:54:25.480Z,5248
2017-10-01T12:55:48.995Z,4504
2017-10-01T12:56:55.391Z,5052
2017-10-01T12:58:09.754Z,5352
2017-10-01T12:59:22.063Z,5568
2017-10-01T13:00:33.999Z,6780
2017-10-01T13:01:50.134Z,7244
2017-10-01T13:03:01.985Z,7524
2017-10-01T13:04:18.017Z,5140
2017-10-01T13:05:33.325Z,3168
2017-10-01T13:06:50.817Z,4696
2017-10-01T13:08:05.877Z,3356
2017-10-01T13:09:20.373Z,8188
2017-10-01T13:10:36.042Z,5976
2017-10-01T13:11:54.491Z,5848
2017-10-01T13:13:13.109Z,6260
2017-10-01T13:14:30.487Z,7256
2017-10-01T13:15:42.552Z,6924
2017-10-01T13:16:57.187Z,6276
2017-10-01T13:18:04.583Z,6036
2017-10-01T13:19:17.805Z,5748
2017-10-01T13:20:28.996Z,5232
2017-10-01T13:21:40.000Z,4800
2017-10-01T13:22:54.140Z,4012
2017-10-01T13:24:08.489Z,4132
2017-10-01T13:25:20.094Z,4108
2017-10-01T13:26:32.254Z,3568
2017-10-01T13:27:46.079Z,4260
2017-10-01T13:29:00.996Z,4524
2017-10-01T13:30:06.308Z,4772
2017-10-01T13:31:17.842Z,4728
2017-10-01T13:32:30.123Z,4416
2017-10-01T13:33:39.629Z,4304
2017-10-01T13:34:40.533Z,4384
2017-10-01T13:35:53.023Z,4940
2017-10-01T13:36:59.084Z,5540
2017-10-01T13:38:12.612Z,5168
2017-10-01T13:39:26.508Z,4892
2017-10-01T13:40:40.504Z,5808
2017-10-01T13:41:58.193Z,5984
2017-10-01T13:43:07.050Z,7068
2017-10-01T13:44:21.700Z,7464
2017-10-01T13:45:39.654Z,6440
2017-10-01T13:46:57.135Z,5392
2017-10-01T13:48:10.992Z,5200
2017-10-01T13:49:23.340Z,5332
2017-10-01T13:50:44.761Z,4932
2017-10-01T13:51:56.497Z,4708
2017-10-01T13:53:16.537Z,4788
2017-10-01T13:54:27.501Z,4800
2017-10-01T13:55:41.851Z,4720
2017-10-01T13:56:59.009Z,4196
2017-10-01T13:58:05.677Z,4608
2017-10-01T13:59:23.391Z,4184
2017-10-01T14:00:45.286Z,3924
2017-10-01T14:02:07.376Z,3860
2017-10-01T14:03:23.240Z,3592
2017-10-01T14:04:44.655Z,3252
2017-10-01T14:05:53.769Z,3212
2017-10-01T14:07:09.689Z,3276
2017-10-01T14:08:25.105Z,3408
2017-10-01T14:09:35.587Z,3308
2017-10-01T14:10:42.820Z,3468
2017-10-01T14:11:53.167Z,3924
2017-10-01T14:13:10.178Z,3700
2017-10-01T14:14:22.613Z,4836
2017-10-01T14:15:37.222Z,5420
2017-10-01T14:16:53.520Z,5684
2017-10-01T14:18:06.858Z,6112
2017-10-01T14:19:17.691Z,6464
2017-10-01T14:20:26.212Z,6240
2017-10-01T14:21:36.965Z,5824
2017-10-01T14:22:49.908Z,5692
2017-10-01T14:24:05.599Z,5136
2017-10-01T14:25:18.018Z,4848
2017-10-01T14:26:26.190Z,4804
2017-10-01T14:27:41.516Z,4476
2017-10-01T14:28:56.745Z,4364
2017-10-01T14:30:11.130Z,4252
2017-10-01T14:31:25.560Z,4420
2017-10-01T14:32:34.083Z,4800
2017-10-01T14:33:50.732Z,5360
2017-10-01T14:35:03.756Z,6136
2017-10-01T14:36:14.555Z,6432
2017-10-01T14:37:35.514Z,5872
2017-10-01T14:38:45.590Z,5240